sensor_id;sensor_type;location;lat;lon;timestamp;P1;durP1;ratioP1;P2;durP2;ratioP2
9771;SDS011;4925;52.588;13.370;2022-10-31T00:01:31;44.77;;;29.27;;
9771;SDS011;4925;52.588;13.370;2022-10-31T00:03:59;43.40;;;29.13;;
9771;SDS011;4925;52.588;13.370;2022-10-31T00:06:24;43.87;;;27.33;;
9771;SDS011;4925;52.588;13.370;2022-10-31T00:08:54;45.47;;;28.13;;
9771;SDS011;4925;52.588;13.370;2022-10-31T00:11:22;49.50;;;30.03;;
9771;SDS011;4925;52.588;13.370;2022-10-31T00:13:47;46.00;;;29.33;;
9771;SDS011;4925;52.588;13.370;2022-10-31T00:16:17;44.77;;;28.73;;
9771;SDS011;4925;52.588;13.370;2022-10-31T00:18:47;49.37;;;29.27;;
9771;SDS011;4925;52.588;13.370;2022-10-31T00:21:14;50.27;;;29.13;;
9771;SDS011;4925;52.588;13.370;2022-10-31T00:23:40;47.87;;;28.50;;
9771;SDS011;4925;52.588;13.370;2022-10-31T00:26:05;40.20;;;27.77;;
9771;SDS011;4925;52.588;13.370;2022-10-31T00:28:31;45.33;;;29.07;;
9771;SDS011;4925;52.588;13.370;2022-10-31T00:31:01;41.90;;;27.10;;
9771;SDS011;4925;52.588;13.370;2022-10-31T00:33:28;49.10;;;28.17;;
9771;SDS011;4925;52.588;13.370;2022-10-31T00:35:54;43.53;;;27.17;;
9771;SDS011;4925;52.588;13.370;2022-10-31T00:38:20;42.20;;;27.90;;
9771;SDS011;4925;52.588;13.370;2022-10-31T00:40:46;43.40;;;28.23;;
9771;SDS011;4925;52.588;13.370;2022-10-31T00:43:11;46.50;;;27.63;;
9771;SDS011;4925;52.588;13.370;2022-10-31T00:45:37;44.37;;;27.13;;
9771;SDS011;4925;52.588;13.370;2022-10-31T00:48:03;42.57;;;26.20;;
9771;SDS011;4925;52.588;13.370;2022-10-31T00:50:29;37.77;;;25.20;;
9771;SDS011;4925;52.588;13.370;2022-10-31T00:52:55;41.90;;;27.53;;
9771;SDS011;4925;52.588;13.370;2022-10-31T00:55:21;45.03;;;27.37;;
9771;SDS011;4925;52.588;13.370;2022-10-31T00:57:47;41.37;;;27.20;;
9771;SDS011;4925;52.588;13.370;2022-10-31T01:00:13;40.70;;;26.70;;
9771;SDS011;4925;52.588;13.370;2022-10-31T01:02:39;43.47;;;27.10;;
9771;SDS011;4925;52.588;13.370;2022-10-31T01:05:05;40.43;;;25.80;;
9771;SDS011;4925;52.588;13.370;2022-10-31T01:07:31;42.10;;;27.73;;
9771;SDS011;4925;52.588;13.370;2022-10-31T01:09:56;42.93;;;26.63;;
9771;SDS011;4925;52.588;13.370;2022-10-31T01:12:22;42.37;;;25.77;;
9771;SDS011;4925;52.588;13.370;2022-10-31T01:14:47;39.83;;;25.50;;
9771;SDS011;4925;52.588;13.370;2022-10-31T01:17:13;39.80;;;25.73;;
9771;SDS011;4925;52.588;13.370;2022-10-31T01:19:39;39.93;;;25.37;;
9771;SDS011;4925;52.588;13.370;2022-10-31T01:22:05;35.13;;;23.67;;
9771;SDS011;4925;52.588;13.370;2022-10-31T01:24:31;36.80;;;23.00;;
9771;SDS011;4925;52.588;13.370;2022-10-31T01:26:56;34.10;;;22.73;;
9771;SDS011;4925;52.588;13.370;2022-10-31T01:29:22;35.97;;;21.63;;
9771;SDS011;4925;52.588;13.370;2022-10-31T01:31:48;34.30;;;22.60;;
9771;SDS011;4925;52.588;13.370;2022-10-31T01:34:15;39.33;;;23.97;;
9771;SDS011;4925;52.588;13.370;2022-10-31T01:36:42;29.17;;;20.73;;
9771;SDS011;4925;52.588;13.370;2022-10-31T01:39:13;39.77;;;21.50;;
9771;SDS011;4925;52.588;13.370;2022-10-31T01:41:44;35.60;;;22.27;;
9771;SDS011;4925;52.588;13.370;2022-10-31T01:46:41;39.40;;;25.93;;
9771;SDS011;4925;52.588;13.370;2022-10-31T01:49:17;40.90;;;24.10;;
9771;SDS011;4925;52.588;13.370;2022-10-31T01:51:47;32.70;;;21.97;;
9771;SDS011;4925;52.588;13.370;2022-10-31T01:54:18;38.07;;;22.50;;
9771;SDS011;4925;52.588;13.370;2022-10-31T01:56:47;32.30;;;19.83;;
9771;SDS011;4925;52.588;13.370;2022-10-31T01:59:16;33.87;;;19.37;;
9771;SDS011;4925;52.588;13.370;2022-10-31T02:01:45;29.80;;;19.90;;
9771;SDS011;4925;52.588;13.370;2022-10-31T02:04:12;32.27;;;16.90;;
9771;SDS011;4925;52.588;13.370;2022-10-31T02:06:38;31.40;;;17.60;;
9771;SDS011;4925;52.588;13.370;2022-10-31T02:09:09;26.13;;;16.17;;
9771;SDS011;4925;52.588;13.370;2022-10-31T02:11:37;28.30;;;18.50;;
9771;SDS011;4925;52.588;13.370;2022-10-31T02:14:03;26.00;;;18.37;;
9771;SDS011;4925;52.588;13.370;2022-10-31T02:16:29;28.80;;;17.67;;
9771;SDS011;4925;52.588;13.370;2022-10-31T02:18:55;33.20;;;18.93;;
9771;SDS011;4925;52.588;13.370;2022-10-31T02:21:23;28.17;;;18.53;;
9771;SDS011;4925;52.588;13.370;2022-10-31T02:24:21;34.63;;;20.30;;
9771;SDS011;4925;52.588;13.370;2022-10-31T02:27:07;34.67;;;20.93;;
9771;SDS011;4925;52.588;13.370;2022-10-31T02:32:29;30.73;;;20.97;;
9771;SDS011;4925;52.588;13.370;2022-10-31T02:35:24;29.53;;;19.97;;
9771;SDS011;4925;52.588;13.370;2022-10-31T02:38:07;35.57;;;20.53;;
9771;SDS011;4925;52.588;13.370;2022-10-31T02:41:28;37.93;;;22.47;;
9771;SDS011;4925;52.588;13.370;2022-10-31T02:49:17;27.50;;;20.00;;
9771;SDS011;4925;52.588;13.370;2022-10-31T02:51:51;27.67;;;20.10;;
9771;SDS011;4925;52.588;13.370;2022-10-31T02:54:18;51.97;;;21.77;;
9771;SDS011;4925;52.588;13.370;2022-10-31T02:56:48;51.30;;;19.87;;
9771;SDS011;4925;52.588;13.370;2022-10-31T02:59:18;34.97;;;17.17;;
9771;SDS011;4925;52.588;13.370;2022-10-31T03:04:34;24.93;;;14.83;;
9771;SDS011;4925;52.588;13.370;2022-10-31T03:07:36;29.67;;;16.20;;
9771;SDS011;4925;52.588;13.370;2022-10-31T03:13:08;25.10;;;13.77;;
9771;SDS011;4925;52.588;13.370;2022-10-31T03:15:43;22.97;;;14.33;;
9771;SDS011;4925;52.588;13.370;2022-10-31T03:18:27;26.10;;;13.60;;
9771;SDS011;4925;52.588;13.370;2022-10-31T03:20:56;22.80;;;12.93;;
9771;SDS011;4925;52.588;13.370;2022-10-31T03:23:29;22.23;;;11.83;;
9771;SDS011;4925;52.588;13.370;2022-10-31T03:25:57;23.73;;;13.27;;
9771;SDS011;4925;52.588;13.370;2022-10-31T03:28:29;20.50;;;13.47;;
9771;SDS011;4925;52.588;13.370;2022-10-31T03:30:58;17.20;;;13.20;;
9771;SDS011;4925;52.588;13.370;2022-10-31T03:33:27;17.00;;;12.33;;
9771;SDS011;4925;52.588;13.370;2022-10-31T03:35:56;20.77;;;12.00;;
9771;SDS011;4925;52.588;13.370;2022-10-31T03:38:25;20.40;;;12.87;;
9771;SDS011;4925;52.588;13.370;2022-10-31T03:40:51;20.73;;;12.17;;
9771;SDS011;4925;52.588;13.370;2022-10-31T03:43:21;20.00;;;12.13;;
9771;SDS011;4925;52.588;13.370;2022-10-31T03:45:53;14.93;;;10.83;;
9771;SDS011;4925;52.588;13.370;2022-10-31T03:48:19;21.63;;;12.13;;
9771;SDS011;4925;52.588;13.370;2022-10-31T03:54:23;19.77;;;11.67;;
9771;SDS011;4925;52.588;13.370;2022-10-31T03:56:37;22.10;;;11.67;;
9771;SDS011;4925;52.588;13.370;2022-10-31T03:59:34;21.03;;;12.20;;
9771;SDS011;4925;52.588;13.370;2022-10-31T04:02:02;17.53;;;11.70;;
9771;SDS011;4925;52.588;13.370;2022-10-31T04:04:32;15.60;;;11.57;;
9771;SDS011;4925;52.588;13.370;2022-10-31T04:06:59;18.03;;;12.17;;
9771;SDS011;4925;52.588;13.370;2022-10-31T04:09:26;18.33;;;11.30;;
9771;SDS011;4925;52.588;13.370;2022-10-31T04:11:55;17.30;;;11.87;;
9771;SDS011;4925;52.588;13.370;2022-10-31T04:14:23;17.50;;;11.27;;
9771;SDS011;4925;52.588;13.370;2022-10-31T04:16:51;20.03;;;11.50;;
9771;SDS011;4925;52.588;13.370;2022-10-31T04:19:17;14.93;;;10.77;;
9771;SDS011;4925;52.588;13.370;2022-10-31T04:21:42;20.03;;;10.00;;
9771;SDS011;4925;52.588;13.370;2022-10-31T04:24:08;20.53;;;11.27;;
9771;SDS011;4925;52.588;13.370;2022-10-31T04:26:34;24.50;;;11.90;;
9771;SDS011;4925;52.588;13.370;2022-10-31T04:29:00;20.27;;;11.80;;
9771;SDS011;4925;52.588;13.370;2022-10-31T04:31:25;21.93;;;12.13;;
9771;SDS011;4925;52.588;13.370;2022-10-31T04:33:52;18.00;;;10.03;;
9771;SDS011;4925;52.588;13.370;2022-10-31T04:36:18;19.60;;;11.37;;
9771;SDS011;4925;52.588;13.370;2022-10-31T04:38:43;18.93;;;10.87;;
9771;SDS011;4925;52.588;13.370;2022-10-31T04:41:09;15.87;;;10.30;;
9771;SDS011;4925;52.588;13.370;2022-10-31T04:43:35;18.73;;;10.77;;
9771;SDS011;4925;52.588;13.370;2022-10-31T04:46:00;19.80;;;11.27;;
9771;SDS011;4925;52.588;13.370;2022-10-31T04:48:26;19.37;;;11.50;;
9771;SDS011;4925;52.588;13.370;2022-10-31T04:50:52;20.40;;;10.73;;
9771;SDS011;4925;52.588;13.370;2022-10-31T04:53:17;19.20;;;11.70;;
9771;SDS011;4925;52.588;13.370;2022-10-31T04:55:43;20.40;;;10.57;;
9771;SDS011;4925;52.588;13.370;2022-10-31T04:58:08;17.53;;;10.83;;
9771;SDS011;4925;52.588;13.370;2022-10-31T05:00:34;16.63;;;9.83;;
9771;SDS011;4925;52.588;13.370;2022-10-31T05:03:00;22.50;;;10.77;;
9771;SDS011;4925;52.588;13.370;2022-10-31T05:05:26;17.10;;;10.97;;
9771;SDS011;4925;52.588;13.370;2022-10-31T05:07:54;16.87;;;10.87;;
9771;SDS011;4925;52.588;13.370;2022-10-31T05:10:21;17.90;;;10.37;;
9771;SDS011;4925;52.588;13.370;2022-10-31T05:12:49;17.77;;;10.10;;
9771;SDS011;4925;52.588;13.370;2022-10-31T05:15:20;18.10;;;9.97;;
9771;SDS011;4925;52.588;13.370;2022-10-31T05:17:46;15.83;;;10.63;;
9771;SDS011;4925;52.588;13.370;2022-10-31T05:20:12;16.63;;;10.20;;
9771;SDS011;4925;52.588;13.370;2022-10-31T05:22:43;18.33;;;10.27;;
9771;SDS011;4925;52.588;13.370;2022-10-31T05:25:14;18.63;;;10.67;;
9771;SDS011;4925;52.588;13.370;2022-10-31T05:27:40;16.07;;;9.70;;
9771;SDS011;4925;52.588;13.370;2022-10-31T05:30:07;14.17;;;9.93;;
9771;SDS011;4925;52.588;13.370;2022-10-31T05:32:40;18.50;;;11.03;;
9771;SDS011;4925;52.588;13.370;2022-10-31T05:35:08;19.47;;;10.47;;
9771;SDS011;4925;52.588;13.370;2022-10-31T05:37:34;22.47;;;9.87;;
9771;SDS011;4925;52.588;13.370;2022-10-31T05:40:00;19.33;;;10.03;;
9771;SDS011;4925;52.588;13.370;2022-10-31T05:42:30;18.27;;;10.77;;
9771;SDS011;4925;52.588;13.370;2022-10-31T05:44:56;18.03;;;10.13;;
9771;SDS011;4925;52.588;13.370;2022-10-31T05:47:22;12.57;;;9.97;;
9771;SDS011;4925;52.588;13.370;2022-10-31T05:49:47;19.27;;;9.93;;
9771;SDS011;4925;52.588;13.370;2022-10-31T05:52:13;19.17;;;10.77;;
9771;SDS011;4925;52.588;13.370;2022-10-31T05:54:39;14.70;;;10.17;;
9771;SDS011;4925;52.588;13.370;2022-10-31T05:57:04;17.63;;;10.93;;
9771;SDS011;4925;52.588;13.370;2022-10-31T05:59:30;20.00;;;10.97;;
9771;SDS011;4925;52.588;13.370;2022-10-31T06:01:56;13.47;;;10.33;;
9771;SDS011;4925;52.588;13.370;2022-10-31T06:04:21;13.90;;;10.63;;
9771;SDS011;4925;52.588;13.370;2022-10-31T06:06:47;17.60;;;11.23;;
9771;SDS011;4925;52.588;13.370;2022-10-31T06:09:13;18.80;;;10.80;;
9771;SDS011;4925;52.588;13.370;2022-10-31T06:11:38;17.83;;;10.87;;
9771;SDS011;4925;52.588;13.370;2022-10-31T06:14:04;12.83;;;9.67;;
9771;SDS011;4925;52.588;13.370;2022-10-31T06:16:30;20.27;;;10.47;;
9771;SDS011;4925;52.588;13.370;2022-10-31T06:18:56;17.27;;;10.40;;
9771;SDS011;4925;52.588;13.370;2022-10-31T06:21:22;14.47;;;10.27;;
9771;SDS011;4925;52.588;13.370;2022-10-31T06:23:47;16.60;;;10.67;;
9771;SDS011;4925;52.588;13.370;2022-10-31T06:26:13;13.90;;;9.90;;
9771;SDS011;4925;52.588;13.370;2022-10-31T06:28:38;16.13;;;10.30;;
9771;SDS011;4925;52.588;13.370;2022-10-31T06:31:04;17.23;;;10.30;;
9771;SDS011;4925;52.588;13.370;2022-10-31T06:33:30;17.93;;;10.23;;
9771;SDS011;4925;52.588;13.370;2022-10-31T06:35:56;16.97;;;10.67;;
9771;SDS011;4925;52.588;13.370;2022-10-31T06:38:21;13.00;;;9.67;;
9771;SDS011;4925;52.588;13.370;2022-10-31T06:40:47;17.27;;;10.83;;
9771;SDS011;4925;52.588;13.370;2022-10-31T06:43:12;18.10;;;10.53;;
9771;SDS011;4925;52.588;13.370;2022-10-31T06:45:39;19.57;;;10.17;;
9771;SDS011;4925;52.588;13.370;2022-10-31T06:48:05;15.60;;;10.50;;
9771;SDS011;4925;52.588;13.370;2022-10-31T06:50:31;20.30;;;10.47;;
9771;SDS011;4925;52.588;13.370;2022-10-31T06:52:57;20.93;;;11.53;;
9771;SDS011;4925;52.588;13.370;2022-10-31T06:55:24;18.30;;;10.23;;
9771;SDS011;4925;52.588;13.370;2022-10-31T06:57:54;14.43;;;9.83;;
9771;SDS011;4925;52.588;13.370;2022-10-31T07:00:21;16.83;;;10.43;;
9771;SDS011;4925;52.588;13.370;2022-10-31T07:03:00;17.50;;;10.77;;
9771;SDS011;4925;52.588;13.370;2022-10-31T07:05:28;18.63;;;10.90;;
9771;SDS011;4925;52.588;13.370;2022-10-31T07:07:54;15.47;;;10.37;;
9771;SDS011;4925;52.588;13.370;2022-10-31T07:10:21;16.30;;;9.73;;
9771;SDS011;4925;52.588;13.370;2022-10-31T07:12:48;14.17;;;10.20;;
9771;SDS011;4925;52.588;13.370;2022-10-31T07:15:14;16.20;;;10.40;;
9771;SDS011;4925;52.588;13.370;2022-10-31T07:17:39;15.40;;;10.53;;
9771;SDS011;4925;52.588;13.370;2022-10-31T07:20:05;16.37;;;10.37;;
9771;SDS011;4925;52.588;13.370;2022-10-31T07:22:32;16.17;;;10.17;;
9771;SDS011;4925;52.588;13.370;2022-10-31T07:24:59;14.67;;;9.80;;
9771;SDS011;4925;52.588;13.370;2022-10-31T07:27:24;14.10;;;10.87;;
9771;SDS011;4925;52.588;13.370;2022-10-31T07:29:50;16.37;;;9.83;;
9771;SDS011;4925;52.588;13.370;2022-10-31T07:32:15;13.73;;;9.43;;
9771;SDS011;4925;52.588;13.370;2022-10-31T07:34:41;15.57;;;10.10;;
9771;SDS011;4925;52.588;13.370;2022-10-31T07:37:06;14.93;;;10.83;;
9771;SDS011;4925;52.588;13.370;2022-10-31T07:39:32;18.47;;;10.43;;
9771;SDS011;4925;52.588;13.370;2022-10-31T07:41:58;19.83;;;10.70;;
9771;SDS011;4925;52.588;13.370;2022-10-31T07:44:24;17.60;;;10.77;;
9771;SDS011;4925;52.588;13.370;2022-10-31T07:46:49;17.47;;;11.03;;
9771;SDS011;4925;52.588;13.370;2022-10-31T07:49:15;20.13;;;11.60;;
9771;SDS011;4925;52.588;13.370;2022-10-31T07:51:40;25.60;;;10.93;;
9771;SDS011;4925;52.588;13.370;2022-10-31T07:54:06;16.97;;;10.10;;
9771;SDS011;4925;52.588;13.370;2022-10-31T07:56:32;141.63;;;83.67;;
9771;SDS011;4925;52.588;13.370;2022-10-31T07:58:57;72.57;;;42.67;;
9771;SDS011;4925;52.588;13.370;2022-10-31T08:01:23;31.03;;;18.03;;
9771;SDS011;4925;52.588;13.370;2022-10-31T08:03:48;18.10;;;12.03;;
9771;SDS011;4925;52.588;13.370;2022-10-31T08:06:14;23.10;;;12.70;;
9771;SDS011;4925;52.588;13.370;2022-10-31T08:08:40;15.57;;;11.47;;
9771;SDS011;4925;52.588;13.370;2022-10-31T08:11:05;20.47;;;11.97;;
9771;SDS011;4925;52.588;13.370;2022-10-31T08:13:31;17.43;;;11.23;;
9771;SDS011;4925;52.588;13.370;2022-10-31T08:15:57;19.20;;;11.97;;
9771;SDS011;4925;52.588;13.370;2022-10-31T08:18:28;21.60;;;11.60;;
9771;SDS011;4925;52.588;13.370;2022-10-31T08:20:54;18.83;;;11.77;;
9771;SDS011;4925;52.588;13.370;2022-10-31T08:23:20;18.27;;;12.23;;
9771;SDS011;4925;52.588;13.370;2022-10-31T08:25:45;20.13;;;12.50;;
9771;SDS011;4925;52.588;13.370;2022-10-31T08:28:12;23.93;;;11.90;;
9771;SDS011;4925;52.588;13.370;2022-10-31T08:30:39;20.30;;;11.70;;
9771;SDS011;4925;52.588;13.370;2022-10-31T08:33:08;21.37;;;13.07;;
9771;SDS011;4925;52.588;13.370;2022-10-31T08:35:38;26.60;;;12.13;;
9771;SDS011;4925;52.588;13.370;2022-10-31T08:38:04;22.10;;;13.30;;
9771;SDS011;4925;52.588;13.370;2022-10-31T08:40:31;18.17;;;12.07;;
9771;SDS011;4925;52.588;13.370;2022-10-31T08:43:05;23.50;;;12.77;;
9771;SDS011;4925;52.588;13.370;2022-10-31T08:45:34;104.00;;;60.53;;
9771;SDS011;4925;52.588;13.370;2022-10-31T08:48:00;36.13;;;22.70;;
9771;SDS011;4925;52.588;13.370;2022-10-31T08:50:27;65.13;;;37.97;;
9771;SDS011;4925;52.588;13.370;2022-10-31T08:52:59;41.93;;;29.03;;
9771;SDS011;4925;52.588;13.370;2022-10-31T08:55:28;25.87;;;13.83;;
9771;SDS011;4925;52.588;13.370;2022-10-31T08:57:57;17.50;;;11.63;;
9771;SDS011;4925;52.588;13.370;2022-10-31T09:00:23;20.83;;;12.03;;
9771;SDS011;4925;52.588;13.370;2022-10-31T09:02:56;22.67;;;12.97;;
9771;SDS011;4925;52.588;13.370;2022-10-31T09:05:27;14.13;;;10.77;;
9771;SDS011;4925;52.588;13.370;2022-10-31T09:07:57;21.33;;;12.20;;
9771;SDS011;4925;52.588;13.370;2022-10-31T09:10:24;19.20;;;12.00;;
9771;SDS011;4925;52.588;13.370;2022-10-31T09:12:57;21.67;;;12.97;;
9771;SDS011;4925;52.588;13.370;2022-10-31T09:15:27;18.73;;;12.00;;
9771;SDS011;4925;52.588;13.370;2022-10-31T09:17:53;19.63;;;12.00;;
9771;SDS011;4925;52.588;13.370;2022-10-31T09:20:19;16.27;;;11.13;;
9771;SDS011;4925;52.588;13.370;2022-10-31T09:22:46;18.13;;;12.53;;
9771;SDS011;4925;52.588;13.370;2022-10-31T09:25:12;24.13;;;13.23;;
9771;SDS011;4925;52.588;13.370;2022-10-31T09:27:37;19.40;;;13.03;;
9771;SDS011;4925;52.588;13.370;2022-10-31T09:30:04;23.27;;;13.70;;
9771;SDS011;4925;52.588;13.370;2022-10-31T09:32:30;21.90;;;13.40;;
9771;SDS011;4925;52.588;13.370;2022-10-31T09:34:55;21.67;;;13.10;;
9771;SDS011;4925;52.588;13.370;2022-10-31T09:37:21;32.17;;;13.53;;
9771;SDS011;4925;52.588;13.370;2022-10-31T09:39:47;24.03;;;13.27;;
9771;SDS011;4925;52.588;13.370;2022-10-31T09:50:36;24.77;;;13.77;;
9771;SDS011;4925;52.588;13.370;2022-10-31T09:53:23;25.50;;;14.17;;
9771;SDS011;4925;52.588;13.370;2022-10-31T09:55:54;24.97;;;14.23;;
9771;SDS011;4925;52.588;13.370;2022-10-31T09:58:24;22.83;;;14.53;;
9771;SDS011;4925;52.588;13.370;2022-10-31T10:00:56;22.33;;;13.90;;
9771;SDS011;4925;52.588;13.370;2022-10-31T10:06:19;20.93;;;13.70;;
9771;SDS011;4925;52.588;13.370;2022-10-31T10:08:48;23.43;;;12.73;;
9771;SDS011;4925;52.588;13.370;2022-10-31T10:14:04;20.80;;;12.73;;
9771;SDS011;4925;52.588;13.370;2022-10-31T10:22:08;20.45;;;11.25;;
9771;SDS011;4925;52.588;13.370;2022-10-31T10:27:41;25.93;;;12.47;;
9771;SDS011;4925;52.588;13.370;2022-10-31T10:30:15;18.70;;;12.75;;
9771;SDS011;4925;52.588;13.370;2022-10-31T10:32:48;24.17;;;12.63;;
9771;SDS011;4925;52.588;13.370;2022-10-31T10:37:49;18.30;;;11.93;;
9771;SDS011;4925;52.588;13.370;2022-10-31T10:40:25;34.15;;;13.13;;
9771;SDS011;4925;52.588;13.370;2022-10-31T10:43:38;19.98;;;11.27;;
9771;SDS011;4925;52.588;13.370;2022-10-31T10:48:56;58.20;;;15.80;;
9771;SDS011;4925;52.588;13.370;2022-10-31T11:00:02;32.75;;;13.10;;
9771;SDS011;4925;52.588;13.370;2022-10-31T11:02:41;22.20;;;13.13;;
9771;SDS011;4925;52.588;13.370;2022-10-31T11:05:08;26.45;;;13.15;;
9771;SDS011;4925;52.588;13.370;2022-10-31T11:07:59;23.77;;;12.82;;
9771;SDS011;4925;52.588;13.370;2022-10-31T11:10:25;27.25;;;13.48;;
9771;SDS011;4925;52.588;13.370;2022-10-31T11:13:02;24.33;;;13.95;;
9771;SDS011;4925;52.588;13.370;2022-10-31T11:15:32;18.67;;;12.85;;
9771;SDS011;4925;52.588;13.370;2022-10-31T11:18:01;21.05;;;14.07;;
9771;SDS011;4925;52.588;13.370;2022-10-31T11:20:29;22.17;;;14.82;;
9771;SDS011;4925;52.588;13.370;2022-10-31T11:23:04;23.35;;;14.35;;
9771;SDS011;4925;52.588;13.370;2022-10-31T11:25:54;31.73;;;15.63;;
9771;SDS011;4925;52.588;13.370;2022-10-31T11:28:31;25.42;;;15.02;;
9771;SDS011;4925;52.588;13.370;2022-10-31T11:31:00;28.60;;;14.18;;
9771;SDS011;4925;52.588;13.370;2022-10-31T11:36:01;21.38;;;13.93;;
9771;SDS011;4925;52.588;13.370;2022-10-31T11:38:42;24.33;;;15.73;;
9771;SDS011;4925;52.588;13.370;2022-10-31T11:43:37;26.75;;;14.68;;
9771;SDS011;4925;52.588;13.370;2022-10-31T11:46:16;25.42;;;16.42;;
9771;SDS011;4925;52.588;13.370;2022-10-31T11:48:50;24.13;;;15.30;;
9771;SDS011;4925;52.588;13.370;2022-10-31T11:51:22;25.00;;;15.15;;
9771;SDS011;4925;52.588;13.370;2022-10-31T11:53:52;28.90;;;15.50;;
9771;SDS011;4925;52.588;13.370;2022-10-31T11:56:20;20.20;;;13.88;;
9771;SDS011;4925;52.588;13.370;2022-10-31T11:58:59;25.60;;;14.85;;
9771;SDS011;4925;52.588;13.370;2022-10-31T12:01:28;20.40;;;12.80;;
9771;SDS011;4925;52.588;13.370;2022-10-31T12:06:35;25.13;;;13.80;;
9771;SDS011;4925;52.588;13.370;2022-10-31T12:09:04;19.02;;;13.07;;
9771;SDS011;4925;52.588;13.370;2022-10-31T12:14:50;18.73;;;13.32;;
9771;SDS011;4925;52.588;13.370;2022-10-31T12:20:11;24.80;;;15.38;;
9771;SDS011;4925;52.588;13.370;2022-10-31T12:25:25;22.90;;;14.77;;
9771;SDS011;4925;52.588;13.370;2022-10-31T12:47:31;26.67;;;15.63;;
9771;SDS011;4925;52.588;13.370;2022-10-31T12:53:00;23.88;;;15.05;;
9771;SDS011;4925;52.588;13.370;2022-10-31T13:00:48;22.27;;;13.20;;
9771;SDS011;4925;52.588;13.370;2022-10-31T13:03:47;25.48;;;14.27;;
9771;SDS011;4925;52.588;13.370;2022-10-31T13:06:22;20.55;;;14.30;;
9771;SDS011;4925;52.588;13.370;2022-10-31T13:09:01;22.27;;;14.10;;
9771;SDS011;4925;52.588;13.370;2022-10-31T13:11:34;25.88;;;13.68;;
9771;SDS011;4925;52.588;13.370;2022-10-31T13:14:09;20.90;;;13.82;;
9771;SDS011;4925;52.588;13.370;2022-10-31T13:16:46;21.80;;;13.85;;
9771;SDS011;4925;52.588;13.370;2022-10-31T13:22:00;25.02;;;16.10;;
9771;SDS011;4925;52.588;13.370;2022-10-31T13:24:52;28.63;;;17.00;;
9771;SDS011;4925;52.588;13.370;2022-10-31T13:27:26;23.95;;;15.18;;
9771;SDS011;4925;52.588;13.370;2022-10-31T13:30:00;24.30;;;15.40;;
9771;SDS011;4925;52.588;13.370;2022-10-31T13:32:51;30.38;;;16.92;;
9771;SDS011;4925;52.588;13.370;2022-10-31T13:35:37;21.27;;;14.65;;
9771;SDS011;4925;52.588;13.370;2022-10-31T13:45:54;20.02;;;14.13;;
9771;SDS011;4925;52.588;13.370;2022-10-31T13:50:59;22.55;;;16.60;;
9771;SDS011;4925;52.588;13.370;2022-10-31T13:53:36;22.80;;;15.50;;
9771;SDS011;4925;52.588;13.370;2022-10-31T13:56:14;26.83;;;16.73;;
9771;SDS011;4925;52.588;13.370;2022-10-31T14:01:23;28.02;;;18.90;;
9771;SDS011;4925;52.588;13.370;2022-10-31T14:04:12;23.83;;;16.98;;
9771;SDS011;4925;52.588;13.370;2022-10-31T14:09:25;25.48;;;18.42;;
9771;SDS011;4925;52.588;13.370;2022-10-31T14:14:53;33.53;;;20.10;;
9771;SDS011;4925;52.588;13.370;2022-10-31T14:17:23;28.52;;;18.50;;
9771;SDS011;4925;52.588;13.370;2022-10-31T14:22:45;114.55;;;78.65;;
9771;SDS011;4925;52.588;13.370;2022-10-31T14:25:31;55.88;;;39.50;;
9771;SDS011;4925;52.588;13.370;2022-10-31T14:28:01;32.97;;;21.52;;
9771;SDS011;4925;52.588;13.370;2022-10-31T14:30:33;34.97;;;21.75;;
9771;SDS011;4925;52.588;13.370;2022-10-31T14:32:59;28.13;;;20.75;;
9771;SDS011;4925;52.588;13.370;2022-10-31T14:35:37;30.88;;;20.60;;
9771;SDS011;4925;52.588;13.370;2022-10-31T14:41:35;30.00;;;20.88;;
9771;SDS011;4925;52.588;13.370;2022-10-31T14:44:15;33.47;;;21.80;;
9771;SDS011;4925;52.588;13.370;2022-10-31T14:52:36;34.87;;;22.37;;
9771;SDS011;4925;52.588;13.370;2022-10-31T14:55:04;34.17;;;23.40;;
9771;SDS011;4925;52.588;13.370;2022-10-31T14:57:35;36.60;;;24.33;;
9771;SDS011;4925;52.588;13.370;2022-10-31T15:00:06;39.70;;;24.83;;
9771;SDS011;4925;52.588;13.370;2022-10-31T15:02:56;42.00;;;24.77;;
9771;SDS011;4925;52.588;13.370;2022-10-31T15:05:45;34.13;;;23.60;;
9771;SDS011;4925;52.588;13.370;2022-10-31T15:08:29;42.70;;;25.23;;
9771;SDS011;4925;52.588;13.370;2022-10-31T15:11:13;38.77;;;25.30;;
9771;SDS011;4925;52.588;13.370;2022-10-31T15:13:46;40.23;;;25.70;;
9771;SDS011;4925;52.588;13.370;2022-10-31T15:16:22;42.27;;;25.33;;
9771;SDS011;4925;52.588;13.370;2022-10-31T15:19:04;42.03;;;27.47;;
9771;SDS011;4925;52.588;13.370;2022-10-31T15:21:31;42.23;;;26.80;;
9771;SDS011;4925;52.588;13.370;2022-10-31T15:23:59;43.70;;;25.60;;
9771;SDS011;4925;52.588;13.370;2022-10-31T15:26:32;43.57;;;27.67;;
9771;SDS011;4925;52.588;13.370;2022-10-31T15:29:10;41.13;;;26.73;;
9771;SDS011;4925;52.588;13.370;2022-10-31T15:34:26;46.87;;;28.87;;
9771;SDS011;4925;52.588;13.370;2022-10-31T15:37:04;48.97;;;30.03;;
9771;SDS011;4925;52.588;13.370;2022-10-31T15:39:35;52.03;;;31.43;;
9771;SDS011;4925;52.588;13.370;2022-10-31T15:42:01;165.30;;;99.97;;
9771;SDS011;4925;52.588;13.370;2022-10-31T15:44:35;233.60;;;142.83;;
9771;SDS011;4925;52.588;13.370;2022-10-31T15:47:06;90.53;;;53.10;;
9771;SDS011;4925;52.588;13.370;2022-10-31T15:49:40;58.63;;;33.63;;
9771;SDS011;4925;52.588;13.370;2022-10-31T15:52:14;52.97;;;32.97;;
9771;SDS011;4925;52.588;13.370;2022-10-31T15:54:46;53.87;;;32.27;;
9771;SDS011;4925;52.588;13.370;2022-10-31T15:57:14;51.97;;;31.50;;
9771;SDS011;4925;52.588;13.370;2022-10-31T15:59:40;51.53;;;31.97;;
9771;SDS011;4925;52.588;13.370;2022-10-31T16:02:14;56.30;;;32.53;;
9771;SDS011;4925;52.588;13.370;2022-10-31T16:04:53;51.63;;;33.97;;
9771;SDS011;4925;52.588;13.370;2022-10-31T16:07:26;61.20;;;34.20;;
9771;SDS011;4925;52.588;13.370;2022-10-31T16:12:19;62.77;;;34.53;;
9771;SDS011;4925;52.588;13.370;2022-10-31T16:14:46;60.20;;;31.70;;
9771;SDS011;4925;52.588;13.370;2022-10-31T16:17:13;58.63;;;33.97;;
9771;SDS011;4925;52.588;13.370;2022-10-31T16:19:59;114.67;;;66.07;;
9771;SDS011;4925;52.588;13.370;2022-10-31T16:22:28;64.03;;;39.10;;
9771;SDS011;4925;52.588;13.370;2022-10-31T16:25:12;53.73;;;34.33;;
9771;SDS011;4925;52.588;13.370;2022-10-31T16:27:40;52.83;;;32.33;;
9771;SDS011;4925;52.588;13.370;2022-10-31T16:36:00;56.43;;;31.87;;
9771;SDS011;4925;52.588;13.370;2022-10-31T16:38:46;53.93;;;33.77;;
9771;SDS011;4925;52.588;13.370;2022-10-31T16:41:11;50.23;;;31.60;;
9771;SDS011;4925;52.588;13.370;2022-10-31T16:43:38;53.37;;;31.60;;
9771;SDS011;4925;52.588;13.370;2022-10-31T16:46:04;50.53;;;31.47;;
9771;SDS011;4925;52.588;13.370;2022-10-31T16:48:30;52.43;;;30.50;;
9771;SDS011;4925;52.588;13.370;2022-10-31T16:50:55;47.50;;;30.47;;
9771;SDS011;4925;52.588;13.370;2022-10-31T16:53:21;51.47;;;32.47;;
9771;SDS011;4925;52.588;13.370;2022-10-31T16:55:48;56.33;;;32.90;;
9771;SDS011;4925;52.588;13.370;2022-10-31T16:58:24;48.20;;;29.90;;
9771;SDS011;4925;52.588;13.370;2022-10-31T17:00:52;46.63;;;30.97;;
9771;SDS011;4925;52.588;13.370;2022-10-31T17:03:18;48.80;;;31.20;;
9771;SDS011;4925;52.588;13.370;2022-10-31T17:05:44;42.87;;;29.97;;
9771;SDS011;4925;52.588;13.370;2022-10-31T17:08:10;43.53;;;27.90;;
9771;SDS011;4925;52.588;13.370;2022-10-31T17:10:36;41.60;;;27.07;;
9771;SDS011;4925;52.588;13.370;2022-10-31T17:13:04;46.60;;;29.20;;
9771;SDS011;4925;52.588;13.370;2022-10-31T17:15:35;43.17;;;27.20;;
9771;SDS011;4925;52.588;13.370;2022-10-31T17:18:07;40.47;;;26.17;;